createdAt,value
2018-08-16T00:00:58.552Z,98759.06
2018-08-16T00:03:28.157Z,98754.88
2018-08-16T00:05:57.519Z,98752.63
2018-08-16T00:08:27.065Z,98747.92
2018-08-16T00:10:56.468Z,98753.97
2018-08-16T00:13:25.972Z,98748.75
2018-08-16T00:15:55.360Z,98748.23
2018-08-16T00:18:24.829Z,98746.91
2018-08-16T00:20:54.278Z,98744.03
2018-08-16T00:23:24.816Z,98743.63
2018-08-16T00:25:54.413Z,98745.88
2018-08-16T00:28:23.815Z,98744.86
2018-08-16T00:30:53.151Z,98746.78
2018-08-16T00:33:23.540Z,98743.30
2018-08-16T00:35:53.148Z,98738.31
2018-08-16T00:38:22.632Z,98741.19
2018-08-16T00:40:52.160Z,98747.83
2018-08-16T00:43:21.614Z,98743.43
2018-08-16T00:45:51.063Z,98745.17
2018-08-16T00:48:20.522Z,98750.77
2018-08-16T00:50:49.970Z,98749.93
2018-08-16T00:53:19.429Z,98739.62
2018-08-16T00:55:48.735Z,98743.37
2018-08-16T00:58:18.175Z,98743.19
2018-08-16T01:00:47.627Z,98742.27
2018-08-16T01:03:17.021Z,98740.62
2018-08-16T01:05:46.586Z,98728.36
2018-08-16T01:08:15.922Z,98730.91
2018-08-16T01:10:45.291Z,98734.20
2018-08-16T01:13:14.791Z,98731.14
2018-08-16T01:15:44.398Z,98732.34
2018-08-16T01:18:13.810Z,98726.73
2018-08-16T01:20:43.204Z,98726.61
2018-08-16T01:23:12.809Z,98724.26
2018-08-16T01:25:42.288Z,98729.75
2018-08-16T01:28:11.805Z,98723.32
2018-08-16T01:30:41.322Z,98721.17
2018-08-16T01:33:10.827Z,98718.35
2018-08-16T01:35:40.309Z,98724.42
2018-08-16T01:38:09.937Z,98727.08
2018-08-16T01:40:39.442Z,98722.59
2018-08-16T01:43:09.152Z,98727.00
2018-08-16T01:45:38.552Z,98727.48
2018-08-16T01:48:08.528Z,98729.50
2018-08-16T01:50:37.866Z,98730.00
2018-08-16T01:53:07.166Z,98713.43
2018-08-16T01:55:36.534Z,98720.03
2018-08-16T01:58:06.279Z,98719.17
2018-08-16T02:00:35.767Z,98709.19
2018-08-16T02:03:05.288Z,98713.34
2018-08-16T02:05:34.999Z,98713.73
2018-08-16T02:08:08.736Z,98716.07
2018-08-16T02:10:41.379Z,98500.66
2018-08-16T02:13:10.867Z,98707.91
2018-08-16T02:15:40.389Z,98705.76
2018-08-16T02:18:10.508Z,98706.26
2018-08-16T02:20:40.013Z,98707.27
2018-08-16T02:23:09.822Z,98710.05
2018-08-16T02:25:42.398Z,98707.91
2018-08-16T02:28:11.802Z,98711.34
2018-08-16T02:30:41.114Z,98711.52
2018-08-16T02:33:10.378Z,98707.44
2018-08-16T02:35:39.865Z,98709.02
2018-08-16T02:38:09.403Z,98703.22
2018-08-16T02:40:38.787Z,98702.28
2018-08-16T02:43:08.099Z,98703.00
2018-08-16T02:45:37.775Z,98698.38
2018-08-16T02:48:08.067Z,98699.42
2018-08-16T02:50:37.545Z,98701.36
2018-08-16T02:53:07.953Z,98701.25
2018-08-16T02:55:37.577Z,98695.20
2018-08-16T02:58:06.834Z,98698.34
2018-08-16T03:00:36.482Z,98701.45
2018-08-16T03:03:05.885Z,98695.66
2018-08-16T03:05:35.491Z,98694.19
2018-08-16T03:08:05.099Z,98696.09
2018-08-16T03:10:34.602Z,98697.91
2018-08-16T03:13:03.926Z,98693.94
2018-08-16T03:15:33.359Z,98700.63
2018-08-16T03:18:02.672Z,98693.22
2018-08-16T03:20:32.108Z,98689.74
2018-08-16T03:23:01.613Z,98691.50
2018-08-16T03:25:31.015Z,98692.33
2018-08-16T03:28:00.416Z,98688.66
2018-08-16T03:30:30.888Z,98688.92
2018-08-16T03:33:00.349Z,98687.11
2018-08-16T03:35:29.953Z,98683.64
2018-08-16T03:37:59.861Z,98678.97
2018-08-16T03:40:29.576Z,98678.17
2018-08-16T03:42:58.979Z,98680.50
2018-08-16T03:45:28.584Z,98673.01
2018-08-16T03:47:58.112Z,98677.25
2018-08-16T03:50:27.696Z,98674.08
2018-08-16T03:52:57.302Z,98672.46
2018-08-16T03:55:26.638Z,98678.50
2018-08-16T03:57:56.003Z,98681.69
2018-08-16T04:00:25.407Z,98684.63
2018-08-16T04:02:54.871Z,98682.75
2018-08-16T04:05:24.210Z,98686.33
2018-08-16T04:07:53.818Z,98683.75
2018-08-16T04:10:23.127Z,98684.07
2018-08-16T04:12:52.825Z,98687.59
2018-08-16T04:15:22.230Z,98688.69
2018-08-16T04:17:51.721Z,98686.92
2018-08-16T04:20:21.239Z,98693.01
2018-08-16T04:22:50.584Z,98686.09
2018-08-16T04:25:19.839Z,98686.83
2018-08-16T04:27:49.135Z,98681.87
2018-08-16T04:30:18.623Z,98684.08
2018-08-16T04:32:47.941Z,98685.45
2018-08-16T04:35:17.595Z,98684.45
2018-08-16T04:37:47.046Z,98685.89
2018-08-16T04:40:16.554Z,98688.15
2018-08-16T04:42:45.864Z,98687.55
2018-08-16T04:45:15.462Z,98682.37
2018-08-16T04:47:44.964Z,98678.61
2018-08-16T04:50:14.571Z,98687.16
2018-08-16T04:52:44.178Z,98680.93
2018-08-16T04:55:13.579Z,98680.55
2018-08-16T04:57:43.046Z,98679.67
2018-08-16T05:00:13.510Z,98681.75
2018-08-16T05:02:43.321Z,98684.95
2018-08-16T05:05:12.826Z,98679.97
2018-08-16T05:07:42.484Z,98680.95
2018-08-16T05:10:12.347Z,98683.05
2018-08-16T05:12:41.686Z,98680.45
2018-08-16T05:15:12.686Z,98678.84
2018-08-16T05:17:42.294Z,98674.83
2018-08-16T05:20:13.914Z,98681.45
2018-08-16T05:22:43.349Z,98674.14
2018-08-16T05:25:12.854Z,98672.50
2018-08-16T05:27:42.312Z,98666.61
2018-08-16T05:30:13.095Z,98666.56
2018-08-16T05:32:42.830Z,98669.39
2018-08-16T05:35:12.323Z,98665.61
2018-08-16T05:37:41.656Z,98664.47
2018-08-16T05:40:11.565Z,98661.02
2018-08-16T05:42:41.227Z,98660.41
2018-08-16T05:45:10.936Z,98653.61
2018-08-16T05:47:40.444Z,98658.11
2018-08-16T05:50:11.963Z,98651.79
2018-08-16T05:52:41.915Z,98504.09
2018-08-16T05:55:11.413Z,98658.20
2018-08-16T05:57:41.228Z,98654.27
2018-08-16T06:00:13.201Z,98651.84
2018-08-16T06:02:42.486Z,98648.94
2018-08-16T06:05:12.701Z,98653.31
2018-08-16T06:07:42.036Z,98648.98
2018-08-16T06:10:11.439Z,98651.03
2018-08-16T06:12:40.913Z,98650.58
2018-08-16T06:15:10.721Z,98649.42
2018-08-16T06:17:40.061Z,98651.39
2018-08-16T06:20:11.460Z,98642.07
2018-08-16T06:22:41.181Z,98648.10
2018-08-16T06:25:12.611Z,98647.54
2018-08-16T06:27:42.505Z,98644.05
2018-08-16T06:30:14.031Z,98639.68
2018-08-16T06:32:44.017Z,98647.60
2018-08-16T06:35:13.353Z,98645.25
2018-08-16T06:37:42.640Z,98644.81
2018-08-16T06:40:14.370Z,98638.72
2018-08-16T06:42:44.033Z,98635.61
2018-08-16T06:45:13.295Z,98636.52
2018-08-16T06:47:42.680Z,98630.94
2018-08-16T06:50:12.184Z,98633.11
2018-08-16T06:52:41.673Z,98629.52
2018-08-16T06:55:11.562Z,98629.34
2018-08-16T06:57:40.852Z,98624.58
2018-08-16T07:00:10.407Z,98622.31
2018-08-16T07:02:39.806Z,98628.61
2018-08-16T07:05:09.726Z,98620.82
2018-08-16T07:07:39.246Z,98621.59
2018-08-16T07:10:10.472Z,98619.97
2018-08-16T07:12:39.768Z,98617.30
2018-08-16T07:15:12.013Z,98616.11
2018-08-16T07:17:41.849Z,98618.83
2018-08-16T07:20:11.251Z,98623.95
2018-08-16T07:22:40.653Z,98622.86
2018-08-16T07:25:10.666Z,98624.22
2018-08-16T07:27:40.071Z,98617.88
2018-08-16T07:30:10.744Z,98616.02
2018-08-16T07:32:40.618Z,98607.97
2018-08-16T07:35:10.836Z,98603.59
2018-08-16T07:37:40.238Z,98607.89
2018-08-16T07:40:09.947Z,98604.25
2018-08-16T07:42:39.350Z,98604.61
2018-08-16T07:45:10.559Z,98608.83
2018-08-16T07:47:40.312Z,98607.88
2018-08-16T07:50:10.936Z,98600.89
2018-08-16T07:52:41.159Z,98602.38
2018-08-16T07:55:11.172Z,98599.64
2018-08-16T07:57:40.884Z,98596.47
2018-08-16T08:00:12.743Z,98597.19
2018-08-16T08:02:42.246Z,98600.97
2018-08-16T08:05:11.956Z,98594.12
2018-08-16T08:07:41.766Z,98597.80
2018-08-16T08:10:11.475Z,98596.40
2018-08-16T08:12:40.715Z,98588.98
2018-08-16T08:15:12.771Z,98597.52
2018-08-16T08:17:42.139Z,98589.14
2018-08-16T08:20:13.939Z,98592.55
2018-08-16T08:22:43.317Z,98589.93
2018-08-16T08:25:14.077Z,98586.83
2018-08-16T08:27:43.635Z,98583.34
2018-08-16T08:30:14.840Z,98582.53
2018-08-16T08:32:44.183Z,98582.31
2018-08-16T08:35:13.584Z,98581.16
2018-08-16T08:37:54.352Z,98576.54
2018-08-16T08:40:23.616Z,98578.98
2018-08-16T08:42:53.137Z,98571.63
2018-08-16T08:45:22.558Z,98571.23
2018-08-16T08:47:57.797Z,98568.64
2018-08-16T08:50:27.709Z,98560.58
2018-08-16T08:54:09.214Z,98561.41
2018-08-16T08:56:49.871Z,98554.84
2018-08-16T08:59:19.290Z,98559.95
2018-08-16T09:01:48.774Z,98555.55
2018-08-16T09:04:18.020Z,98551.12
2018-08-16T09:06:47.379Z,98554.92
2018-08-16T09:09:16.891Z,98546.75
2018-08-16T09:11:57.545Z,98541.84
2018-08-16T09:14:38.312Z,98539.33
2018-08-16T09:17:07.817Z,98536.63
2018-08-16T09:19:37.096Z,98531.81
2018-08-16T09:22:06.582Z,98527.62
2018-08-16T09:24:35.921Z,98522.48
2018-08-16T09:27:05.151Z,98518.71
2018-08-16T09:30:43.741Z,98520.25
2018-08-16T09:33:24.511Z,98511.70
2018-08-16T09:35:53.740Z,98508.49
2018-08-16T09:38:23.212Z,98501.24
2018-08-16T09:40:52.614Z,98497.41
2018-08-16T09:43:21.912Z,98495.06
2018-08-16T09:47:08.393Z,98495.76
2018-08-16T09:49:44.492Z,98315.52
2018-08-16T09:52:14.806Z,98494.82
2018-08-16T09:54:44.033Z,98489.63
2018-08-16T09:57:14.581Z,98487.94
2018-08-16T09:59:44.035Z,98491.02
2018-08-16T10:02:15.045Z,98480.00
2018-08-16T10:04:44.425Z,98476.70
2018-08-16T10:07:13.777Z,98474.68
2018-08-16T10:09:43.286Z,98462.58
2018-08-16T10:12:12.871Z,98470.16
2018-08-16T10:14:42.288Z,98470.55
2018-08-16T10:17:11.899Z,98459.80
2018-08-16T10:19:41.223Z,98452.45
2018-08-16T10:22:10.602Z,98453.75
2018-08-16T10:24:39.961Z,98451.52
2018-08-16T10:27:09.410Z,98446.09
2018-08-16T10:29:38.647Z,98448.33
2018-08-16T10:32:08.104Z,98436.53
2018-08-16T10:34:37.410Z,98440.23
2018-08-16T10:37:06.808Z,98431.48
2018-08-16T10:39:36.208Z,98434.83
2018-08-16T10:42:05.609Z,98427.53
2018-08-16T10:44:34.949Z,98422.92
2018-08-16T10:47:04.310Z,98427.12
2018-08-16T10:49:33.609Z,98417.89
2018-08-16T10:52:03.178Z,98415.28
2018-08-16T10:54:32.464Z,98421.38
2018-08-16T10:57:01.818Z,98413.69
2018-08-16T10:59:31.321Z,98407.23
2018-08-16T11:02:00.735Z,98401.92
2018-08-16T11:04:30.087Z,98403.48
2018-08-16T11:06:59.526Z,98403.18
2018-08-16T11:09:28.826Z,98401.24
2018-08-16T11:11:58.228Z,98399.23
2018-08-16T11:14:27.632Z,98401.10
2018-08-16T11:16:57.135Z,98401.33
2018-08-16T11:19:26.539Z,98390.48
2018-08-16T11:21:55.764Z,98387.63
2018-08-16T11:24:25.136Z,98390.33
2018-08-16T11:26:54.845Z,98383.64
2018-08-16T11:29:24.331Z,98381.90
2018-08-16T11:31:53.650Z,98376.38
2018-08-16T11:34:22.847Z,98376.53
2018-08-16T11:36:52.353Z,98377.13
2018-08-16T11:39:21.856Z,98372.56
2018-08-16T11:41:51.361Z,98364.99
2018-08-16T11:44:20.867Z,98358.76
2018-08-16T11:46:50.267Z,98356.03
2018-08-16T11:49:19.668Z,98360.05
2018-08-16T11:51:49.293Z,98354.55
2018-08-16T11:54:18.638Z,98350.58
2018-08-16T11:56:47.832Z,98350.14
2018-08-16T11:59:17.177Z,98347.39
2018-08-16T12:01:46.578Z,98346.58
2018-08-16T12:04:16.082Z,98346.63
2018-08-16T12:06:45.393Z,98346.58
2018-08-16T12:09:14.889Z,98338.37
2018-08-16T12:11:44.287Z,98341.17
2018-08-16T12:14:13.688Z,98343.02
2018-08-16T12:16:43.005Z,98333.89
2018-08-16T12:19:12.391Z,98328.11
2018-08-16T12:21:41.794Z,98321.18
2018-08-16T12:24:11.134Z,98319.07
2018-08-16T12:26:40.493Z,98314.89
2018-08-16T12:29:09.708Z,98311.20
2018-08-16T12:31:39.344Z,98302.73
2018-08-16T12:34:08.805Z,98311.34
2018-08-16T12:36:38.309Z,98320.09
2018-08-16T12:39:08.120Z,98305.60
2018-08-16T12:41:37.522Z,98305.84
2018-08-16T12:44:06.926Z,98305.64
2018-08-16T12:46:36.429Z,98302.45
2018-08-16T12:49:05.972Z,98291.01
2018-08-16T12:51:35.644Z,98291.27
2018-08-16T12:54:04.908Z,98288.44
2018-08-16T12:56:34.244Z,98290.19
2018-08-16T12:59:03.749Z,98280.45
2018-08-16T13:01:33.253Z,98272.66
2018-08-16T13:04:02.755Z,98274.27
2018-08-16T13:06:32.361Z,98269.61
2018-08-16T13:09:01.825Z,98271.61
2018-08-16T13:11:31.268Z,98260.50
2018-08-16T13:14:00.669Z,98257.73
2018-08-16T13:16:30.071Z,98263.95
2018-08-16T13:18:59.371Z,98255.97
2018-08-16T13:21:28.773Z,98251.40
2018-08-16T13:23:58.585Z,98256.25
2018-08-16T13:26:27.987Z,98251.69
2018-08-16T13:28:57.494Z,98253.38
2018-08-16T13:31:26.949Z,98251.25
2018-08-16T13:33:56.191Z,98243.30
2018-08-16T13:36:25.595Z,98245.23
2018-08-16T13:38:55.100Z,98251.88
2018-08-16T13:41:24.599Z,98241.19
2018-08-16T13:43:53.904Z,98233.16
2018-08-16T13:46:23.306Z,98233.39
2018-08-16T13:48:52.878Z,98231.78
2018-08-16T13:51:22.214Z,98233.78
2018-08-16T13:53:51.450Z,98233.62
2018-08-16T13:56:20.813Z,98227.41
2018-08-16T13:58:50.216Z,98223.06
2018-08-16T14:01:19.620Z,98210.75
2018-08-16T14:03:49.122Z,98208.77
2018-08-16T14:06:18.421Z,98217.25
2018-08-16T14:08:47.925Z,98209.72
2018-08-16T14:11:17.330Z,98213.25
2018-08-16T14:13:46.575Z,98210.63
2018-08-16T14:16:16.131Z,98211.75
2018-08-16T14:18:45.468Z,98204.64
2018-08-16T14:21:14.974Z,98204.88
2018-08-16T14:23:44.336Z,98206.34
2018-08-16T14:26:13.517Z,98205.13
2018-08-16T14:28:42.842Z,98198.31
2018-08-16T14:31:12.235Z,98202.11
2018-08-16T14:33:41.536Z,98197.52
2018-08-16T14:36:10.842Z,98197.64
2018-08-16T14:38:45.420Z,98185.02
2018-08-16T14:41:14.759Z,98185.32
2018-08-16T14:43:44.163Z,98187.80
2018-08-16T14:46:13.564Z,98187.00
2018-08-16T14:48:42.845Z,98182.38
2018-08-16T14:51:12.431Z,98179.10
2018-08-16T14:53:41.774Z,98183.38
2018-08-16T14:56:12.198Z,98181.91
2018-08-16T14:58:41.599Z,98179.98
2018-08-16T15:01:11.000Z,98185.31
2018-08-16T15:03:40.505Z,98179.84
2018-08-16T15:06:09.840Z,98176.20
2018-08-16T15:08:39.207Z,98170.98
2018-08-16T15:11:08.467Z,98173.69
2018-08-16T15:13:37.804Z,98168.83
2018-08-16T15:16:07.075Z,98164.83
2018-08-16T15:18:36.402Z,97983.14
2018-08-16T15:21:05.704Z,98159.66
2018-08-16T15:23:35.109Z,98160.84
2018-08-16T15:26:04.715Z,98161.95
2018-08-16T15:28:34.121Z,98158.72
2018-08-16T15:31:03.678Z,98156.55
2018-08-16T15:33:33.028Z,98153.71
2018-08-16T15:36:02.527Z,98152.00
2018-08-16T15:38:32.031Z,98154.48
2018-08-16T15:41:01.550Z,98149.21
2018-08-16T15:43:30.790Z,98146.00
2018-08-16T15:46:00.237Z,98152.80
2018-08-16T15:48:29.673Z,98149.86
2018-08-16T15:50:58.943Z,98140.27
2018-08-16T15:53:28.339Z,98144.97
2018-08-16T15:55:57.769Z,98145.75
2018-08-16T15:58:27.248Z,98145.51
2018-08-16T16:00:56.699Z,98139.79
2018-08-16T16:03:26.254Z,98140.35
2018-08-16T16:05:55.822Z,98135.20
2018-08-16T16:08:25.511Z,98129.20
2018-08-16T16:10:55.607Z,98131.64
2018-08-16T16:13:25.530Z,98124.09
2018-08-16T16:15:55.008Z,98131.28
2018-08-16T16:18:24.200Z,98134.09
2018-08-16T16:20:53.605Z,98132.56
2018-08-16T16:23:23.008Z,98130.32
2018-08-16T16:25:52.311Z,98129.23
2018-08-16T16:28:21.916Z,98124.02
2018-08-16T16:30:51.549Z,98124.50
2018-08-16T16:33:20.925Z,98120.44
2018-08-16T16:35:50.327Z,98117.66
2018-08-16T16:38:20.087Z,98117.56
2018-08-16T16:40:49.298Z,98116.02
2018-08-16T16:43:18.531Z,98101.44
2018-08-16T16:45:47.832Z,98109.97
2018-08-16T16:48:17.235Z,98110.92
2018-08-16T16:50:47.049Z,98110.98
2018-08-16T16:53:16.526Z,98073.77
2018-08-16T16:55:45.940Z,98105.57
2018-08-16T16:58:15.258Z,98106.84
2018-08-16T17:00:44.625Z,98104.11
2018-08-16T17:03:13.959Z,98105.84
2018-08-16T17:05:43.358Z,98103.98
2018-08-16T17:08:12.769Z,98105.04
2018-08-16T17:10:42.269Z,98108.53
2018-08-16T17:13:11.778Z,98102.75
2018-08-16T17:15:41.328Z,98101.13
2018-08-16T17:18:10.945Z,98106.39
2018-08-16T17:20:40.487Z,98109.59
2018-08-16T17:23:09.891Z,98108.72
2018-08-16T17:25:39.642Z,98114.06
2018-08-16T17:28:09.212Z,98107.36
2018-08-16T17:30:38.631Z,98106.62
2018-08-16T17:33:08.020Z,98104.33
2018-08-16T17:35:37.570Z,98111.48
2018-08-16T17:38:07.123Z,98111.77
2018-08-16T17:40:36.536Z,98107.12
2018-08-16T17:43:06.681Z,98109.52
2018-08-16T17:45:36.043Z,98108.07
2018-08-16T17:48:05.500Z,98108.70
2018-08-16T17:50:34.950Z,98111.59
2018-08-16T17:53:04.357Z,98104.88
2018-08-16T17:55:33.757Z,98110.83
2018-08-16T17:58:03.157Z,98112.88
2018-08-16T18:00:32.463Z,98112.91
2018-08-16T18:03:01.858Z,98113.55
2018-08-16T18:05:31.260Z,98118.58
2018-08-16T18:08:00.765Z,98118.13
2018-08-16T18:10:30.071Z,98117.76
2018-08-16T18:12:59.467Z,98122.38
2018-08-16T18:15:28.872Z,98123.00
2018-08-16T18:17:58.506Z,98115.95
2018-08-16T18:20:27.880Z,98113.41
2018-08-16T18:22:57.170Z,98118.52
2018-08-16T18:25:26.683Z,98110.68
2018-08-16T18:27:56.000Z,98115.04
2018-08-16T18:30:25.494Z,98116.58
2018-08-16T18:32:54.993Z,98109.39
2018-08-16T18:35:24.492Z,98115.55
2018-08-16T18:37:53.896Z,98118.52
2018-08-16T18:40:23.298Z,98123.32
2018-08-16T18:42:52.712Z,98124.34
2018-08-16T18:45:22.206Z,98134.68
2018-08-16T18:47:51.430Z,98131.83
2018-08-16T18:50:20.907Z,98135.02
2018-08-16T18:52:50.621Z,98136.52
2018-08-16T18:55:20.150Z,98133.92
2018-08-16T18:57:49.627Z,98139.23
2018-08-16T19:00:21.173Z,98136.41
2018-08-16T19:02:50.580Z,98138.27
2018-08-16T19:05:21.158Z,98143.53
2018-08-16T19:07:50.513Z,98144.53
2018-08-16T19:10:19.908Z,98142.57
2018-08-16T19:12:49.317Z,98144.81
2018-08-16T19:15:18.715Z,98148.70
2018-08-16T19:17:48.118Z,98144.75
2018-08-16T19:20:17.520Z,98146.98
2018-08-16T19:22:47.128Z,98143.84
2018-08-16T19:25:16.631Z,98147.81
2018-08-16T19:27:46.136Z,98147.89
2018-08-16T19:30:15.641Z,98153.77
2018-08-16T19:32:44.959Z,98155.92
2018-08-16T19:35:14.547Z,98154.74
2018-08-16T19:37:43.971Z,98152.00
2018-08-16T19:40:13.540Z,98157.34
2018-08-16T19:42:43.006Z,98156.28
2018-08-16T19:45:12.451Z,98157.37
2018-08-16T19:47:41.960Z,98116.06
2018-08-16T19:50:12.047Z,98154.26
2018-08-16T19:52:41.303Z,98153.72
2018-08-16T19:55:10.687Z,98150.00
2018-08-16T19:57:40.495Z,98148.13
2018-08-16T20:00:10.475Z,98151.13
2018-08-16T20:02:39.741Z,98147.91
2018-08-16T20:05:09.422Z,98154.39
2018-08-16T20:07:38.823Z,98149.84
2018-08-16T20:10:09.934Z,98145.81
2018-08-16T20:12:39.462Z,98149.34
2018-08-16T20:15:09.486Z,98144.50
2018-08-16T20:17:39.135Z,98143.98
2018-08-16T20:20:09.051Z,98148.81
2018-08-16T20:22:38.415Z,98150.45
2018-08-16T20:25:07.674Z,98146.14
2018-08-16T20:27:36.906Z,98155.86
2018-08-16T20:30:06.693Z,98150.48
2018-08-16T20:32:36.119Z,98149.66
2018-08-16T20:35:05.726Z,98158.53
2018-08-16T20:37:35.230Z,98160.95
2018-08-16T20:40:05.183Z,98158.82
2018-08-16T20:42:34.752Z,98165.83
2018-08-16T20:45:04.257Z,98165.55
2018-08-16T20:47:33.591Z,98161.77
2018-08-16T20:50:04.611Z,98158.55
2018-08-16T20:52:33.897Z,98158.80
2018-08-16T20:55:03.400Z,98160.97
2018-08-16T20:57:32.905Z,98164.72
2018-08-16T21:00:02.103Z,98163.84
2018-08-16T21:02:31.504Z,98166.28
2018-08-16T21:05:00.733Z,98166.52
2018-08-16T21:07:30.205Z,98169.50
2018-08-16T21:09:59.619Z,98173.64
2018-08-16T21:12:28.907Z,98170.11
2018-08-16T21:14:58.258Z,98175.48
2018-08-16T21:17:27.712Z,98183.11
2018-08-16T21:19:57.113Z,98173.48
2018-08-16T21:22:26.463Z,98179.70
2018-08-16T21:24:55.817Z,98178.91
2018-08-16T21:27:25.324Z,98174.34
2018-08-16T21:29:54.723Z,98169.98
2018-08-16T21:32:24.021Z,98170.80
2018-08-16T21:34:53.424Z,98174.01
2018-08-16T21:37:22.827Z,98176.94
2018-08-16T21:39:52.230Z,98172.91
2018-08-16T21:42:21.684Z,98180.47
2018-08-16T21:44:51.199Z,98182.01
2018-08-16T21:47:20.638Z,98188.64
2018-08-16T21:49:50.143Z,98188.66
2018-08-16T21:52:19.546Z,98191.26
2018-08-16T21:54:48.947Z,98191.77
2018-08-16T21:57:18.351Z,98192.53
2018-08-16T21:59:47.751Z,98195.92
2018-08-16T22:02:17.051Z,98199.38
2018-08-16T22:04:46.453Z,98199.31
2018-08-16T22:09:31.025Z,98196.08
2018-08-16T22:12:00.734Z,98198.59
2018-08-16T22:14:30.135Z,98192.34
2018-08-16T22:16:59.537Z,98195.53
2018-08-16T22:22:40.602Z,98194.41
2018-08-16T22:25:11.570Z,98195.44
2018-08-16T22:27:40.972Z,98191.64
2018-08-16T22:30:10.506Z,98188.77
2018-08-16T22:32:39.751Z,98189.63
2018-08-16T22:35:08.932Z,98187.69
2018-08-16T22:37:47.081Z,98184.11
2018-08-16T22:40:18.837Z,98185.67
2018-08-16T22:42:48.240Z,98184.22
2018-08-16T22:45:17.641Z,98181.23
2018-08-16T22:47:50.013Z,98180.08
2018-08-16T22:50:19.415Z,98182.68
2018-08-16T22:52:48.817Z,98182.12
2018-08-16T22:55:18.141Z,98181.83
2018-08-16T22:57:47.621Z,98186.47
2018-08-16T23:00:16.921Z,98181.16
2018-08-16T23:02:46.324Z,98179.87
2018-08-16T23:05:22.023Z,98177.16
2018-08-16T23:07:51.644Z,98174.71
2018-08-16T23:10:21.595Z,98174.91
2018-08-16T23:12:50.997Z,98175.73
2018-08-16T23:15:20.401Z,98178.17
2018-08-16T23:17:49.801Z,98175.14
2018-08-16T23:20:19.202Z,98179.61
2018-08-16T23:22:48.692Z,98176.59
2018-08-16T23:25:18.112Z,98169.33
2018-08-16T23:27:47.511Z,98165.08
2018-08-16T23:30:17.220Z,98164.52
2018-08-16T23:32:46.626Z,98160.14
2018-08-16T23:35:16.026Z,98154.73
2018-08-16T23:37:45.427Z,98151.72
2018-08-16T23:40:15.133Z,98154.84
2018-08-16T23:42:44.438Z,98156.55
2018-08-16T23:45:13.841Z,98152.48
2018-08-16T23:47:48.259Z,98153.23
2018-08-16T23:50:17.766Z,98151.58
2018-08-16T23:52:47.164Z,98157.56
2018-08-16T23:55:16.566Z,98150.08
2018-08-16T23:57:45.969Z,98150.77
